sensor_id;sensor_type;location;lat;lon;timestamp;P1;durP1;ratioP1;P2;durP2;ratioP2
69034;SDS011;56091;55.756;37.412;2023-07-20T00:01:17;6.73;;;1.53;;
69034;SDS011;56091;55.756;37.412;2023-07-20T00:06:18;5.43;;;1.70;;
69034;SDS011;56091;55.756;37.412;2023-07-20T00:11:19;5.65;;;1.80;;
69034;SDS011;56091;55.756;37.412;2023-07-20T00:16:20;5.43;;;1.80;;
69034;SDS011;56091;55.756;37.412;2023-07-20T00:21:22;5.53;;;1.73;;
69034;SDS011;56091;55.756;37.412;2023-07-20T00:26:23;7.37;;;2.00;;
69034;SDS011;56091;55.756;37.412;2023-07-20T00:31:24;5.20;;;1.50;;
69034;SDS011;56091;55.756;37.412;2023-07-20T00:36:26;10.02;;;1.80;;
69034;SDS011;56091;55.756;37.412;2023-07-20T00:41:26;7.97;;;1.80;;
69034;SDS011;56091;55.756;37.412;2023-07-20T00:46:30;8.25;;;2.00;;
69034;SDS011;56091;55.756;37.412;2023-07-20T00:51:34;7.20;;;2.00;;
69034;SDS011;56091;55.756;37.412;2023-07-20T00:56:36;7.18;;;1.67;;
69034;SDS011;56091;55.756;37.412;2023-07-20T01:01:37;7.50;;;1.70;;
69034;SDS011;56091;55.756;37.412;2023-07-20T01:11:57;5.93;;;1.90;;
69034;SDS011;56091;55.756;37.412;2023-07-20T01:17:06;4.43;;;1.70;;
69034;SDS011;56091;55.756;37.412;2023-07-20T01:22:32;4.87;;;1.80;;
69034;SDS011;56091;55.756;37.412;2023-07-20T01:32:52;9.00;;;1.95;;
69034;SDS011;56091;55.756;37.412;2023-07-20T01:37:57;6.23;;;1.80;;
69034;SDS011;56091;55.756;37.412;2023-07-20T01:42:59;5.75;;;1.85;;
69034;SDS011;56091;55.756;37.412;2023-07-20T01:48:00;5.60;;;1.90;;
69034;SDS011;56091;55.756;37.412;2023-07-20T01:53:01;5.60;;;1.95;;
69034;SDS011;56091;55.756;37.412;2023-07-20T01:58:02;9.23;;;1.90;;
69034;SDS011;56091;55.756;37.412;2023-07-20T02:03:04;6.80;;;1.80;;
69034;SDS011;56091;55.756;37.412;2023-07-20T02:08:05;4.70;;;1.70;;
69034;SDS011;56091;55.756;37.412;2023-07-20T02:13:06;9.90;;;2.03;;
69034;SDS011;56091;55.756;37.412;2023-07-20T02:18:07;6.85;;;1.70;;
69034;SDS011;56091;55.756;37.412;2023-07-20T02:23:08;4.53;;;1.50;;
69034;SDS011;56091;55.756;37.412;2023-07-20T02:28:13;5.35;;;1.60;;
69034;SDS011;56091;55.756;37.412;2023-07-20T02:33:14;4.43;;;1.63;;
69034;SDS011;56091;55.756;37.412;2023-07-20T02:38:15;5.10;;;1.50;;
69034;SDS011;56091;55.756;37.412;2023-07-20T02:43:16;4.97;;;1.50;;
69034;SDS011;56091;55.756;37.412;2023-07-20T02:48:17;4.63;;;1.52;;
69034;SDS011;56091;55.756;37.412;2023-07-20T02:53:19;4.00;;;1.60;;
69034;SDS011;56091;55.756;37.412;2023-07-20T02:58:20;6.25;;;1.88;;
69034;SDS011;56091;55.756;37.412;2023-07-20T03:03:20;8.27;;;1.77;;
69034;SDS011;56091;55.756;37.412;2023-07-20T03:08:23;6.68;;;1.75;;
69034;SDS011;56091;55.756;37.412;2023-07-20T03:13:25;6.33;;;1.97;;
69034;SDS011;56091;55.756;37.412;2023-07-20T03:18:25;4.93;;;1.73;;
69034;SDS011;56091;55.756;37.412;2023-07-20T03:23:26;6.60;;;1.70;;
69034;SDS011;56091;55.756;37.412;2023-07-20T03:28:28;4.30;;;1.63;;
69034;SDS011;56091;55.756;37.412;2023-07-20T03:33:29;3.78;;;1.40;;
69034;SDS011;56091;55.756;37.412;2023-07-20T03:38:32;5.50;;;1.50;;
69034;SDS011;56091;55.756;37.412;2023-07-20T03:43:33;4.20;;;1.30;;
69034;SDS011;56091;55.756;37.412;2023-07-20T03:48:34;5.27;;;1.50;;
69034;SDS011;56091;55.756;37.412;2023-07-20T03:53:35;4.18;;;1.48;;
69034;SDS011;56091;55.756;37.412;2023-07-20T03:58:36;7.37;;;1.60;;
69034;SDS011;56091;55.756;37.412;2023-07-20T04:03:37;3.72;;;1.33;;
69034;SDS011;56091;55.756;37.412;2023-07-20T04:08:38;5.10;;;1.53;;
69034;SDS011;56091;55.756;37.412;2023-07-20T04:13:38;5.35;;;1.60;;
69034;SDS011;56091;55.756;37.412;2023-07-20T04:18:39;6.83;;;1.70;;
69034;SDS011;56091;55.756;37.412;2023-07-20T04:23:40;6.65;;;1.50;;
69034;SDS011;56091;55.756;37.412;2023-07-20T04:28:41;7.80;;;1.60;;
69034;SDS011;56091;55.756;37.412;2023-07-20T04:33:46;4.78;;;1.42;;
69034;SDS011;56091;55.756;37.412;2023-07-20T04:38:47;5.05;;;1.75;;
69034;SDS011;56091;55.756;37.412;2023-07-20T04:43:54;4.13;;;1.30;;
69034;SDS011;56091;55.756;37.412;2023-07-20T04:49:03;4.40;;;1.73;;
69034;SDS011;56091;55.756;37.412;2023-07-20T04:54:08;6.97;;;1.70;;
69034;SDS011;56091;55.756;37.412;2023-07-20T04:59:17;4.73;;;1.50;;
69034;SDS011;56091;55.756;37.412;2023-07-20T05:04:18;4.33;;;1.50;;
69034;SDS011;56091;55.756;37.412;2023-07-20T05:09:19;5.88;;;2.00;;
69034;SDS011;56091;55.756;37.412;2023-07-20T05:14:19;5.27;;;1.43;;
69034;SDS011;56091;55.756;37.412;2023-07-20T05:19:22;7.20;;;1.52;;
69034;SDS011;56091;55.756;37.412;2023-07-20T05:24:25;6.50;;;1.70;;
69034;SDS011;56091;55.756;37.412;2023-07-20T05:29:26;5.80;;;1.50;;
69034;SDS011;56091;55.756;37.412;2023-07-20T05:34:27;7.15;;;1.40;;
69034;SDS011;56091;55.756;37.412;2023-07-20T05:39:29;4.63;;;1.70;;
69034;SDS011;56091;55.756;37.412;2023-07-20T05:44:30;5.18;;;2.00;;
69034;SDS011;56091;55.756;37.412;2023-07-20T05:49:30;15.02;;;1.90;;
69034;SDS011;56091;55.756;37.412;2023-07-20T05:54:33;7.13;;;2.33;;
69034;SDS011;56091;55.756;37.412;2023-07-20T05:59:33;5.05;;;1.40;;
69034;SDS011;56091;55.756;37.412;2023-07-20T06:04:38;5.60;;;1.47;;
69034;SDS011;56091;55.756;37.412;2023-07-20T06:09:39;6.18;;;1.63;;
69034;SDS011;56091;55.756;37.412;2023-07-20T06:14:40;4.77;;;1.70;;
69034;SDS011;56091;55.756;37.412;2023-07-20T06:19:41;5.13;;;1.50;;
69034;SDS011;56091;55.756;37.412;2023-07-20T06:24:41;3.77;;;1.30;;
69034;SDS011;56091;55.756;37.412;2023-07-20T06:29:42;4.97;;;1.08;;
69034;SDS011;56091;55.756;37.412;2023-07-20T06:34:43;5.10;;;1.40;;
69034;SDS011;56091;55.756;37.412;2023-07-20T06:39:44;6.47;;;1.50;;
69034;SDS011;56091;55.756;37.412;2023-07-20T06:44:45;5.57;;;1.40;;
69034;SDS011;56091;55.756;37.412;2023-07-20T06:49:46;3.50;;;1.10;;
69034;SDS011;56091;55.756;37.412;2023-07-20T06:54:47;4.53;;;1.23;;
69034;SDS011;56091;55.756;37.412;2023-07-20T06:59:50;4.88;;;1.30;;
69034;SDS011;56091;55.756;37.412;2023-07-20T07:04:51;4.30;;;1.40;;
69034;SDS011;56091;55.756;37.412;2023-07-20T07:09:52;5.80;;;1.30;;
69034;SDS011;56091;55.756;37.412;2023-07-20T07:14:53;4.03;;;1.33;;
69034;SDS011;56091;55.756;37.412;2023-07-20T07:19:54;5.03;;;1.40;;
69034;SDS011;56091;55.756;37.412;2023-07-20T07:24:56;6.47;;;1.35;;
69034;SDS011;56091;55.756;37.412;2023-07-20T07:29:57;5.50;;;1.37;;
69034;SDS011;56091;55.756;37.412;2023-07-20T07:34:58;3.60;;;1.30;;
69034;SDS011;56091;55.756;37.412;2023-07-20T07:40:01;6.37;;;1.40;;
69034;SDS011;56091;55.756;37.412;2023-07-20T07:45:05;3.77;;;1.17;;
69034;SDS011;56091;55.756;37.412;2023-07-20T07:50:06;4.97;;;1.42;;
69034;SDS011;56091;55.756;37.412;2023-07-20T07:55:07;4.65;;;1.38;;
69034;SDS011;56091;55.756;37.412;2023-07-20T08:00:08;6.40;;;1.90;;
69034;SDS011;56091;55.756;37.412;2023-07-20T08:05:14;4.75;;;1.10;;
69034;SDS011;56091;55.756;37.412;2023-07-20T08:10:18;4.20;;;1.20;;
69034;SDS011;56091;55.756;37.412;2023-07-20T08:15:19;5.73;;;1.50;;
69034;SDS011;56091;55.756;37.412;2023-07-20T08:20:22;6.75;;;1.60;;
69034;SDS011;56091;55.756;37.412;2023-07-20T08:25:27;5.30;;;1.42;;
69034;SDS011;56091;55.756;37.412;2023-07-20T08:30:37;4.97;;;1.40;;
69034;SDS011;56091;55.756;37.412;2023-07-20T08:35:43;8.93;;;1.70;;
69034;SDS011;56091;55.756;37.412;2023-07-20T08:40:45;6.70;;;1.60;;
69034;SDS011;56091;55.756;37.412;2023-07-20T08:45:46;4.72;;;1.30;;
69034;SDS011;56091;55.756;37.412;2023-07-20T08:50:52;4.90;;;1.52;;
69034;SDS011;56091;55.756;37.412;2023-07-20T08:55:56;6.23;;;1.50;;
69034;SDS011;56091;55.756;37.412;2023-07-20T09:00:58;4.38;;;1.63;;
69034;SDS011;56091;55.756;37.412;2023-07-20T09:06:01;5.22;;;1.65;;
69034;SDS011;56091;55.756;37.412;2023-07-20T09:11:02;3.83;;;1.40;;
69034;SDS011;56091;55.756;37.412;2023-07-20T09:16:03;5.05;;;1.73;;
69034;SDS011;56091;55.756;37.412;2023-07-20T09:21:05;6.05;;;1.83;;
69034;SDS011;56091;55.756;37.412;2023-07-20T09:26:13;5.20;;;1.63;;
69034;SDS011;56091;55.756;37.412;2023-07-20T09:31:17;6.22;;;1.60;;
69034;SDS011;56091;55.756;37.412;2023-07-20T09:36:22;4.20;;;1.40;;
69034;SDS011;56091;55.756;37.412;2023-07-20T09:41:23;4.53;;;1.60;;
69034;SDS011;56091;55.756;37.412;2023-07-20T09:46:24;4.80;;;1.42;;
69034;SDS011;56091;55.756;37.412;2023-07-20T09:51:24;15.60;;;2.25;;
69034;SDS011;56091;55.756;37.412;2023-07-20T09:56:25;6.50;;;1.90;;
69034;SDS011;56091;55.756;37.412;2023-07-20T10:01:28;4.65;;;1.90;;
69034;SDS011;56091;55.756;37.412;2023-07-20T10:06:32;6.38;;;2.08;;
69034;SDS011;56091;55.756;37.412;2023-07-20T10:11:35;5.87;;;1.70;;
69034;SDS011;56091;55.756;37.412;2023-07-20T10:16:39;6.20;;;1.95;;
69034;SDS011;56091;55.756;37.412;2023-07-20T10:21:51;7.30;;;2.00;;
69034;SDS011;56091;55.756;37.412;2023-07-20T10:27:14;7.87;;;2.33;;
69034;SDS011;56091;55.756;37.412;2023-07-20T10:32:15;5.80;;;2.20;;
69034;SDS011;56091;55.756;37.412;2023-07-20T10:43:05;4.97;;;2.00;;
69034;SDS011;56091;55.756;37.412;2023-07-20T10:48:21;3.77;;;1.60;;
69034;SDS011;56091;55.756;37.412;2023-07-20T10:53:23;6.47;;;2.20;;
69034;SDS011;56091;55.756;37.412;2023-07-20T10:58:23;6.10;;;1.73;;
69034;SDS011;56091;55.756;37.412;2023-07-20T11:03:29;6.78;;;2.20;;
69034;SDS011;56091;55.756;37.412;2023-07-20T11:08:38;7.15;;;2.70;;
69034;SDS011;56091;55.756;37.412;2023-07-20T11:13:53;5.97;;;2.50;;
69034;SDS011;56091;55.756;37.412;2023-07-20T11:19:04;9.07;;;2.88;;
69034;SDS011;56091;55.756;37.412;2023-07-20T11:24:09;6.18;;;2.60;;
69034;SDS011;56091;55.756;37.412;2023-07-20T11:29:11;5.90;;;2.50;;
69034;SDS011;56091;55.756;37.412;2023-07-20T11:39:18;5.68;;;1.90;;
69034;SDS011;56091;55.756;37.412;2023-07-20T11:44:22;4.47;;;1.73;;
69034;SDS011;56091;55.756;37.412;2023-07-20T11:49:28;4.78;;;1.98;;
69034;SDS011;56091;55.756;37.412;2023-07-20T11:54:29;6.10;;;2.25;;
69034;SDS011;56091;55.756;37.412;2023-07-20T11:59:30;5.40;;;2.20;;
69034;SDS011;56091;55.756;37.412;2023-07-20T12:04:32;6.65;;;2.33;;
69034;SDS011;56091;55.756;37.412;2023-07-20T12:09:33;5.63;;;2.30;;
69034;SDS011;56091;55.756;37.412;2023-07-20T12:14:34;4.43;;;2.00;;
69034;SDS011;56091;55.756;37.412;2023-07-20T12:19:37;7.90;;;2.38;;
69034;SDS011;56091;55.756;37.412;2023-07-20T12:24:40;5.67;;;2.20;;
69034;SDS011;56091;55.756;37.412;2023-07-20T12:29:41;5.88;;;2.40;;
69034;SDS011;56091;55.756;37.412;2023-07-20T12:34:42;6.17;;;3.40;;
69034;SDS011;56091;55.756;37.412;2023-07-20T12:39:42;7.10;;;4.00;;
69034;SDS011;56091;55.756;37.412;2023-07-20T12:44:48;5.90;;;2.00;;
69034;SDS011;56091;55.756;37.412;2023-07-20T12:49:50;6.45;;;2.45;;
69034;SDS011;56091;55.756;37.412;2023-07-20T12:54:50;6.00;;;2.37;;
69034;SDS011;56091;55.756;37.412;2023-07-20T12:59:51;8.70;;;2.03;;
69034;SDS011;56091;55.756;37.412;2023-07-20T13:04:52;7.00;;;3.25;;
69034;SDS011;56091;55.756;37.412;2023-07-20T13:09:53;4.87;;;2.00;;
69034;SDS011;56091;55.756;37.412;2023-07-20T13:14:54;5.87;;;1.90;;
69034;SDS011;56091;55.756;37.412;2023-07-20T13:19:56;5.28;;;1.73;;
69034;SDS011;56091;55.756;37.412;2023-07-20T13:24:57;6.10;;;1.70;;
69034;SDS011;56091;55.756;37.412;2023-07-20T13:29:58;7.03;;;1.80;;
69034;SDS011;56091;55.756;37.412;2023-07-20T13:35:02;8.90;;;1.92;;
69034;SDS011;56091;55.756;37.412;2023-07-20T13:40:05;5.45;;;1.77;;
69034;SDS011;56091;55.756;37.412;2023-07-20T13:45:07;8.17;;;2.00;;
69034;SDS011;56091;55.756;37.412;2023-07-20T13:50:09;5.90;;;1.90;;
69034;SDS011;56091;55.756;37.412;2023-07-20T13:55:11;5.45;;;1.80;;
69034;SDS011;56091;55.756;37.412;2023-07-20T14:00:15;5.70;;;2.10;;
69034;SDS011;56091;55.756;37.412;2023-07-20T14:05:16;6.87;;;2.20;;
69034;SDS011;56091;55.756;37.412;2023-07-20T14:10:17;7.53;;;4.28;;
69034;SDS011;56091;55.756;37.412;2023-07-20T14:15:18;8.67;;;4.60;;
69034;SDS011;56091;55.756;37.412;2023-07-20T14:20:20;6.10;;;3.92;;
69034;SDS011;56091;55.756;37.412;2023-07-20T14:25:23;4.97;;;2.28;;
69034;SDS011;56091;55.756;37.412;2023-07-20T14:30:27;6.17;;;2.03;;
69034;SDS011;56091;55.756;37.412;2023-07-20T14:35:28;4.30;;;2.10;;
69034;SDS011;56091;55.756;37.412;2023-07-20T14:40:29;6.95;;;4.70;;
69034;SDS011;56091;55.756;37.412;2023-07-20T14:45:33;6.83;;;4.20;;
69034;SDS011;56091;55.756;37.412;2023-07-20T14:50:34;4.75;;;1.98;;
69034;SDS011;56091;55.756;37.412;2023-07-20T14:55:35;6.85;;;4.05;;
69034;SDS011;56091;55.756;37.412;2023-07-20T15:00:36;6.47;;;5.00;;
69034;SDS011;56091;55.756;37.412;2023-07-20T15:05:37;5.90;;;4.20;;
69034;SDS011;56091;55.756;37.412;2023-07-20T15:10:38;5.87;;;4.33;;
69034;SDS011;56091;55.756;37.412;2023-07-20T15:15:39;8.00;;;4.03;;
69034;SDS011;56091;55.756;37.412;2023-07-20T15:20:40;5.37;;;3.60;;
69034;SDS011;56091;55.756;37.412;2023-07-20T15:25:41;6.10;;;3.97;;
69034;SDS011;56091;55.756;37.412;2023-07-20T15:30:42;5.90;;;3.60;;
69034;SDS011;56091;55.756;37.412;2023-07-20T15:35:42;6.60;;;3.38;;
69034;SDS011;56091;55.756;37.412;2023-07-20T15:40:44;6.50;;;3.60;;
69034;SDS011;56091;55.756;37.412;2023-07-20T15:45:47;6.05;;;3.30;;
69034;SDS011;56091;55.756;37.412;2023-07-20T15:50:49;8.17;;;3.73;;
69034;SDS011;56091;55.756;37.412;2023-07-20T15:55:54;6.03;;;3.30;;
69034;SDS011;56091;55.756;37.412;2023-07-20T16:00:56;5.90;;;3.58;;
69034;SDS011;56091;55.756;37.412;2023-07-20T16:05:57;7.23;;;3.40;;
69034;SDS011;56091;55.756;37.412;2023-07-20T16:11:02;7.57;;;1.70;;
69034;SDS011;56091;55.756;37.412;2023-07-20T16:16:03;5.18;;;2.20;;
69034;SDS011;56091;55.756;37.412;2023-07-20T16:21:04;6.63;;;2.07;;
69034;SDS011;56091;55.756;37.412;2023-07-20T16:26:05;6.60;;;1.83;;
69034;SDS011;56091;55.756;37.412;2023-07-20T16:31:12;4.50;;;1.73;;
69034;SDS011;56091;55.756;37.412;2023-07-20T16:36:14;6.10;;;1.60;;
69034;SDS011;56091;55.756;37.412;2023-07-20T16:41:16;4.60;;;1.52;;
69034;SDS011;56091;55.756;37.412;2023-07-20T16:46:19;5.17;;;1.67;;
69034;SDS011;56091;55.756;37.412;2023-07-20T16:51:20;5.68;;;1.63;;
69034;SDS011;56091;55.756;37.412;2023-07-20T16:56:22;4.90;;;1.50;;
69034;SDS011;56091;55.756;37.412;2023-07-20T17:01:26;4.80;;;1.80;;
69034;SDS011;56091;55.756;37.412;2023-07-20T17:06:30;7.03;;;1.80;;
69034;SDS011;56091;55.756;37.412;2023-07-20T17:11:30;5.30;;;1.80;;
69034;SDS011;56091;55.756;37.412;2023-07-20T17:16:34;9.30;;;1.90;;
69034;SDS011;56091;55.756;37.412;2023-07-20T17:21:35;5.10;;;1.85;;
69034;SDS011;56091;55.756;37.412;2023-07-20T17:26:36;7.00;;;1.90;;
69034;SDS011;56091;55.756;37.412;2023-07-20T17:31:42;7.65;;;2.00;;
69034;SDS011;56091;55.756;37.412;2023-07-20T17:36:42;7.80;;;1.67;;
69034;SDS011;56091;55.756;37.412;2023-07-20T17:41:43;8.53;;;2.10;;
69034;SDS011;56091;55.756;37.412;2023-07-20T17:46:46;5.05;;;1.85;;
69034;SDS011;56091;55.756;37.412;2023-07-20T17:51:47;5.63;;;2.17;;
69034;SDS011;56091;55.756;37.412;2023-07-20T17:56:47;7.70;;;2.20;;
69034;SDS011;56091;55.756;37.412;2023-07-20T18:01:48;7.97;;;2.20;;
69034;SDS011;56091;55.756;37.412;2023-07-20T18:06:49;5.32;;;2.20;;
69034;SDS011;56091;55.756;37.412;2023-07-20T18:11:50;6.70;;;2.10;;
69034;SDS011;56091;55.756;37.412;2023-07-20T18:16:52;6.15;;;2.08;;
69034;SDS011;56091;55.756;37.412;2023-07-20T18:21:53;6.83;;;2.10;;
69034;SDS011;56091;55.756;37.412;2023-07-20T18:26:55;6.40;;;2.53;;
69034;SDS011;56091;55.756;37.412;2023-07-20T18:32:05;8.10;;;2.00;;
69034;SDS011;56091;55.756;37.412;2023-07-20T18:37:06;6.13;;;2.35;;
69034;SDS011;56091;55.756;37.412;2023-07-20T18:42:10;7.28;;;1.95;;
69034;SDS011;56091;55.756;37.412;2023-07-20T18:47:11;6.00;;;1.90;;
69034;SDS011;56091;55.756;37.412;2023-07-20T18:52:14;7.45;;;2.00;;
69034;SDS011;56091;55.756;37.412;2023-07-20T18:57:15;5.13;;;1.70;;
69034;SDS011;56091;55.756;37.412;2023-07-20T19:02:16;6.50;;;2.37;;
69034;SDS011;56091;55.756;37.412;2023-07-20T19:07:17;7.47;;;1.90;;
69034;SDS011;56091;55.756;37.412;2023-07-20T19:12:20;6.97;;;2.00;;
69034;SDS011;56091;55.756;37.412;2023-07-20T19:17:21;6.97;;;2.13;;
69034;SDS011;56091;55.756;37.412;2023-07-20T19:22:25;6.83;;;2.30;;
69034;SDS011;56091;55.756;37.412;2023-07-20T19:27:26;9.07;;;2.22;;
69034;SDS011;56091;55.756;37.412;2023-07-20T19:32:27;7.17;;;2.47;;
69034;SDS011;56091;55.756;37.412;2023-07-20T19:37:28;5.03;;;1.90;;
69034;SDS011;56091;55.756;37.412;2023-07-20T19:42:29;6.43;;;1.93;;
69034;SDS011;56091;55.756;37.412;2023-07-20T19:47:30;7.10;;;2.20;;
69034;SDS011;56091;55.756;37.412;2023-07-20T19:52:31;5.40;;;2.00;;
69034;SDS011;56091;55.756;37.412;2023-07-20T19:57:34;6.50;;;2.50;;
69034;SDS011;56091;55.756;37.412;2023-07-20T20:02:35;7.57;;;2.10;;
69034;SDS011;56091;55.756;37.412;2023-07-20T20:07:36;7.50;;;2.03;;
69034;SDS011;56091;55.756;37.412;2023-07-20T20:12:37;8.23;;;1.80;;
69034;SDS011;56091;55.756;37.412;2023-07-20T20:17:41;6.43;;;2.10;;
69034;SDS011;56091;55.756;37.412;2023-07-20T20:22:42;9.00;;;3.17;;
69034;SDS011;56091;55.756;37.412;2023-07-20T20:27:43;5.90;;;2.10;;
69034;SDS011;56091;55.756;37.412;2023-07-20T20:32:45;6.28;;;2.10;;
69034;SDS011;56091;55.756;37.412;2023-07-20T20:37:46;7.97;;;3.08;;
69034;SDS011;56091;55.756;37.412;2023-07-20T20:42:47;13.63;;;2.30;;
69034;SDS011;56091;55.756;37.412;2023-07-20T20:47:50;7.30;;;2.67;;
69034;SDS011;56091;55.756;37.412;2023-07-20T20:52:53;9.87;;;2.60;;
69034;SDS011;56091;55.756;37.412;2023-07-20T20:57:57;9.00;;;2.90;;
69034;SDS011;56091;55.756;37.412;2023-07-20T21:02:58;6.95;;;2.75;;
69034;SDS011;56091;55.756;37.412;2023-07-20T21:08:00;10.33;;;2.90;;
69034;SDS011;56091;55.756;37.412;2023-07-20T21:13:01;8.37;;;2.87;;
69034;SDS011;56091;55.756;37.412;2023-07-20T21:18:04;8.93;;;3.13;;
69034;SDS011;56091;55.756;37.412;2023-07-20T21:23:05;11.40;;;3.03;;
69034;SDS011;56091;55.756;37.412;2023-07-20T21:28:06;9.67;;;3.13;;
69034;SDS011;56091;55.756;37.412;2023-07-20T21:33:07;6.80;;;2.58;;
69034;SDS011;56091;55.756;37.412;2023-07-20T21:38:09;6.53;;;3.20;;
69034;SDS011;56091;55.756;37.412;2023-07-20T21:43:13;10.57;;;3.10;;
69034;SDS011;56091;55.756;37.412;2023-07-20T21:48:14;7.05;;;2.83;;
69034;SDS011;56091;55.756;37.412;2023-07-20T21:53:15;7.23;;;2.73;;
69034;SDS011;56091;55.756;37.412;2023-07-20T21:58:16;8.00;;;2.67;;
69034;SDS011;56091;55.756;37.412;2023-07-20T22:03:22;10.20;;;2.88;;
69034;SDS011;56091;55.756;37.412;2023-07-20T22:08:23;7.67;;;3.13;;
69034;SDS011;56091;55.756;37.412;2023-07-20T22:13:27;6.97;;;2.70;;
69034;SDS011;56091;55.756;37.412;2023-07-20T22:18:29;11.17;;;2.70;;
69034;SDS011;56091;55.756;37.412;2023-07-20T22:23:33;5.93;;;2.60;;
69034;SDS011;56091;55.756;37.412;2023-07-20T22:28:35;7.93;;;2.55;;
69034;SDS011;56091;55.756;37.412;2023-07-20T22:33:36;5.57;;;2.00;;
69034;SDS011;56091;55.756;37.412;2023-07-20T22:38:36;6.95;;;2.20;;
69034;SDS011;56091;55.756;37.412;2023-07-20T22:43:37;9.33;;;2.60;;
69034;SDS011;56091;55.756;37.412;2023-07-20T22:48:42;6.95;;;2.53;;
69034;SDS011;56091;55.756;37.412;2023-07-20T22:53:42;8.70;;;2.97;;
69034;SDS011;56091;55.756;37.412;2023-07-20T22:58:43;8.63;;;2.60;;
69034;SDS011;56091;55.756;37.412;2023-07-20T23:03:44;6.63;;;2.60;;
69034;SDS011;56091;55.756;37.412;2023-07-20T23:08:45;6.47;;;2.60;;
69034;SDS011;56091;55.756;37.412;2023-07-20T23:13:48;8.27;;;2.83;;
69034;SDS011;56091;55.756;37.412;2023-07-20T23:18:49;6.33;;;2.60;;
69034;SDS011;56091;55.756;37.412;2023-07-20T23:23:50;8.07;;;2.75;;
69034;SDS011;56091;55.756;37.412;2023-07-20T23:28:53;7.27;;;2.53;;
69034;SDS011;56091;55.756;37.412;2023-07-20T23:33:54;8.23;;;2.60;;
69034;SDS011;56091;55.756;37.412;2023-07-20T23:38:55;7.20;;;2.47;;
69034;SDS011;56091;55.756;37.412;2023-07-20T23:43:58;7.82;;;2.90;;
69034;SDS011;56091;55.756;37.412;2023-07-20T23:48:59;6.10;;;2.60;;
69034;SDS011;56091;55.756;37.412;2023-07-20T23:54:01;7.90;;;2.50;;
69034;SDS011;56091;55.756;37.412;2023-07-20T23:59:02;6.93;;;2.72;;
